createdAt,value
2023-11-25T00:00:02.431Z,5.75
2023-11-25T00:01:06.013Z,6.50
2023-11-25T00:02:09.477Z,5.00
2023-11-25T00:03:12.821Z,6.00
2023-11-25T00:04:16.401Z,5.50
2023-11-25T00:05:20.016Z,5.50
2023-11-25T00:06:23.433Z,6.00
2023-11-25T00:07:26.928Z,5.00
2023-11-25T00:08:30.729Z,4.50
2023-11-25T00:09:34.307Z,5.00
2023-11-25T00:10:38.154Z,5.25
2023-11-25T00:11:41.695Z,4.00
2023-11-25T00:12:45.375Z,4.00
2023-11-25T00:13:48.774Z,4.50
2023-11-25T00:14:52.038Z,4.00
2023-11-25T00:15:55.449Z,3.00
2023-11-25T00:16:58.997Z,4.00
2023-11-25T00:18:02.863Z,5.50
2023-11-25T00:19:06.719Z,5.00
2023-11-25T00:20:10.625Z,5.00
2023-11-25T00:21:14.232Z,4.75
2023-11-25T00:22:17.997Z,4.25
2023-11-25T00:23:21.717Z,5.00
2023-11-25T00:24:25.415Z,5.00
2023-11-25T00:25:29.138Z,3.75
2023-11-25T00:26:32.682Z,3.75
2023-11-25T00:27:36.174Z,3.25
2023-11-25T00:28:40.093Z,3.50
2023-11-25T00:29:43.562Z,3.50
2023-11-25T00:30:47.361Z,4.50
2023-11-25T00:31:51.256Z,4.25
2023-11-25T00:32:54.914Z,4.00
2023-11-25T00:33:58.906Z,4.00
2023-11-25T00:35:02.416Z,3.50
2023-11-25T00:36:06.220Z,2.50
2023-11-25T00:37:10.001Z,3.00
2023-11-25T00:38:13.413Z,4.00
2023-11-25T00:39:17.046Z,4.50
2023-11-25T00:40:20.507Z,4.50
2023-11-25T00:41:23.862Z,5.50
2023-11-25T00:42:27.384Z,4.20
2023-11-25T00:43:30.797Z,4.50
2023-11-25T00:44:34.685Z,4.00
2023-11-25T00:45:38.277Z,4.50
2023-11-25T00:46:41.910Z,4.50
2023-11-25T00:47:45.740Z,4.00
2023-11-25T00:48:49.302Z,4.00
2023-11-25T00:49:52.693Z,6.00
2023-11-25T00:50:56.535Z,4.75
2023-11-25T00:52:00.318Z,3.25
2023-11-25T00:53:04.025Z,4.00
2023-11-25T00:54:07.377Z,3.50
2023-11-25T00:55:11.310Z,2.50
2023-11-25T00:56:14.572Z,3.00
2023-11-25T00:57:18.204Z,4.60
2023-11-25T00:58:21.686Z,4.25
2023-11-25T00:59:25.261Z,3.50
2023-11-25T01:00:29.276Z,3.25
2023-11-25T01:01:32.776Z,3.50
2023-11-25T01:02:36.246Z,3.00
2023-11-25T01:03:39.798Z,3.50
2023-11-25T01:04:43.545Z,3.50
2023-11-25T01:05:47.319Z,3.25
2023-11-25T01:06:50.628Z,4.00
2023-11-25T01:07:54.048Z,4.50
2023-11-25T01:08:57.472Z,3.75
2023-11-25T01:10:00.863Z,3.00
2023-11-25T01:11:04.197Z,3.00
2023-11-25T01:12:07.831Z,3.50
2023-11-25T01:13:11.371Z,4.00
2023-11-25T01:14:15.266Z,4.50
2023-11-25T01:15:18.827Z,3.75
2023-11-25T01:16:22.469Z,4.00
2023-11-25T01:17:26.022Z,5.00
2023-11-25T01:18:29.202Z,5.50
2023-11-25T01:19:32.612Z,5.50
2023-11-25T01:20:36.169Z,5.00
2023-11-25T01:21:40.075Z,4.25
2023-11-25T01:22:43.899Z,4.00
2023-11-25T01:23:47.450Z,5.00
2023-11-25T01:24:50.792Z,5.00
2023-11-25T01:25:54.322Z,5.00
2023-11-25T01:26:57.913Z,5.25
2023-11-25T01:28:01.482Z,5.00
2023-11-25T01:29:05.411Z,4.00
2023-11-25T01:30:09.518Z,4.50
2023-11-25T01:31:12.919Z,3.25
2023-11-25T01:32:16.691Z,3.75
2023-11-25T01:33:20.069Z,4.00
2023-11-25T01:34:23.695Z,3.50
2023-11-25T01:35:26.964Z,3.75
2023-11-25T01:36:30.644Z,4.00
2023-11-25T01:37:34.365Z,4.50
2023-11-25T01:38:37.824Z,4.50
2023-11-25T01:39:41.320Z,3.50
2023-11-25T01:40:45.062Z,4.00
2023-11-25T01:41:48.699Z,4.00
2023-11-25T01:42:52.017Z,4.25
2023-11-25T01:43:55.280Z,3.75
2023-11-25T01:44:59.176Z,4.20
2023-11-25T01:46:02.717Z,4.00
2023-11-25T01:47:06.579Z,4.00
2023-11-25T01:48:09.996Z,4.25
2023-11-25T01:49:14.076Z,5.00
2023-11-25T01:50:17.947Z,5.00
2023-11-25T01:51:21.094Z,4.75
2023-11-25T01:52:24.203Z,5.75
2023-11-25T01:53:27.800Z,6.50
2023-11-25T01:54:31.522Z,7.00
2023-11-25T01:55:35.063Z,6.75
2023-11-25T01:56:38.686Z,6.75
2023-11-25T01:57:42.272Z,6.50
2023-11-25T01:58:47.027Z,8.75
2023-11-25T01:59:50.801Z,9.00
2023-11-25T02:00:54.470Z,9.00
2023-11-25T02:01:58.614Z,7.00
2023-11-25T02:03:02.273Z,8.50
2023-11-25T02:04:06.795Z,8.75
2023-11-25T02:05:10.658Z,8.50
2023-11-25T02:06:14.175Z,8.75
2023-11-25T02:07:18.005Z,8.50
2023-11-25T02:08:21.613Z,8.50
2023-11-25T02:09:25.357Z,7.25
2023-11-25T02:10:29.290Z,8.50
2023-11-25T02:11:32.755Z,9.50
2023-11-25T02:12:36.822Z,9.00
2023-11-25T02:13:40.515Z,8.00
2023-11-25T02:14:44.344Z,8.25
2023-11-25T02:15:48.379Z,9.00
2023-11-25T02:16:52.080Z,10.00
2023-11-25T02:17:56.164Z,11.75
2023-11-25T02:18:59.912Z,13.75
2023-11-25T02:20:03.592Z,14.00
2023-11-25T02:21:07.643Z,10.50
2023-11-25T02:22:11.642Z,9.50
2023-11-25T02:23:15.217Z,8.75
2023-11-25T02:24:19.120Z,9.25
2023-11-25T02:25:23.322Z,10.50
2023-11-25T02:26:27.022Z,9.75
2023-11-25T02:27:30.810Z,10.25
2023-11-25T02:28:34.796Z,9.00
2023-11-25T02:29:38.496Z,9.00
2023-11-25T02:30:42.410Z,9.00
2023-11-25T02:31:46.258Z,8.00
2023-11-25T02:32:49.975Z,7.75
2023-11-25T02:33:53.794Z,9.00
2023-11-25T02:34:57.362Z,8.50
2023-11-25T02:36:01.078Z,7.00
2023-11-25T02:37:04.997Z,8.00
2023-11-25T02:38:08.771Z,7.00
2023-11-25T02:39:12.476Z,8.50
2023-11-25T02:40:16.196Z,7.50
2023-11-25T02:41:19.977Z,7.75
2023-11-25T02:42:23.755Z,7.50
2023-11-25T02:43:27.246Z,6.00
2023-11-25T02:44:30.839Z,6.75
2023-11-25T02:45:34.431Z,6.00
2023-11-25T02:46:38.426Z,5.50
2023-11-25T02:47:42.199Z,7.00
2023-11-25T02:48:45.760Z,7.50
2023-11-25T02:49:49.691Z,6.50
2023-11-25T02:50:53.304Z,5.50
2023-11-25T02:51:57.117Z,6.50
2023-11-25T02:53:00.793Z,6.00
2023-11-25T02:54:04.159Z,5.75
2023-11-25T02:55:08.415Z,6.00
2023-11-25T02:56:12.092Z,6.00
2023-11-25T02:57:15.774Z,5.50
2023-11-25T02:58:19.365Z,5.75
2023-11-25T02:59:23.067Z,5.75
2023-11-25T03:00:26.758Z,5.75
2023-11-25T03:01:30.553Z,5.00
2023-11-25T03:02:34.765Z,5.00
2023-11-25T03:03:38.503Z,5.50
2023-11-25T03:04:42.369Z,6.00
2023-11-25T03:05:45.837Z,4.75
2023-11-25T03:06:49.404Z,5.00
2023-11-25T03:07:53.049Z,5.25
2023-11-25T03:08:56.620Z,4.25
2023-11-25T03:10:00.438Z,5.50
2023-11-25T03:11:03.914Z,6.50
2023-11-25T03:12:07.920Z,7.00
2023-11-25T03:13:11.575Z,6.00
2023-11-25T03:14:15.212Z,7.00
2023-11-25T03:15:18.477Z,5.25
2023-11-25T03:16:21.713Z,5.50
2023-11-25T03:17:25.198Z,5.00
2023-11-25T03:18:28.554Z,6.00
2023-11-25T03:19:32.007Z,6.50
2023-11-25T03:20:35.254Z,6.00
2023-11-25T03:21:38.474Z,5.75
2023-11-25T03:22:42.065Z,6.50
2023-11-25T03:23:45.380Z,6.00
2023-11-25T03:24:48.948Z,5.50
2023-11-25T03:25:52.555Z,6.00
2023-11-25T03:26:55.976Z,6.00
2023-11-25T03:27:59.351Z,5.00
2023-11-25T03:29:02.613Z,5.00
2023-11-25T03:30:06.309Z,6.75
2023-11-25T03:31:10.046Z,6.50
2023-11-25T03:32:13.401Z,6.00
2023-11-25T03:33:16.837Z,7.00
2023-11-25T03:34:20.395Z,6.00
2023-11-25T03:35:23.732Z,6.50
2023-11-25T03:36:27.128Z,6.00
2023-11-25T03:37:30.681Z,5.25
2023-11-25T03:38:34.006Z,6.00
2023-11-25T03:39:37.693Z,6.75
2023-11-25T03:40:41.062Z,6.50
2023-11-25T03:41:44.469Z,5.50
2023-11-25T03:42:47.873Z,6.00
2023-11-25T03:43:51.142Z,6.75
2023-11-25T03:44:54.945Z,6.00
2023-11-25T03:45:58.549Z,5.00
2023-11-25T03:47:01.931Z,5.50
2023-11-25T03:48:05.880Z,5.50
2023-11-25T03:49:09.421Z,4.50
2023-11-25T03:50:13.617Z,4.75
2023-11-25T03:51:17.212Z,5.50
2023-11-25T03:52:20.699Z,4.50
2023-11-25T03:53:23.961Z,5.00
2023-11-25T03:54:27.380Z,5.50
2023-11-25T03:55:31.002Z,7.50
2023-11-25T03:56:34.476Z,6.00
2023-11-25T03:57:37.603Z,5.00
2023-11-25T03:58:40.801Z,5.25
2023-11-25T03:59:44.068Z,5.00
2023-11-25T04:00:47.466Z,4.00
2023-11-25T04:01:50.987Z,4.50
2023-11-25T04:02:54.498Z,5.50
2023-11-25T04:03:58.086Z,5.75
2023-11-25T04:05:01.345Z,5.00
2023-11-25T04:06:05.154Z,4.50
2023-11-25T04:07:09.048Z,6.00
2023-11-25T04:08:12.516Z,5.50
2023-11-25T04:09:15.779Z,5.25
2023-11-25T04:10:19.127Z,6.50
2023-11-25T04:11:22.573Z,5.50
2023-11-25T04:12:25.856Z,5.00
2023-11-25T04:13:29.486Z,5.00
2023-11-25T04:14:32.858Z,5.25
2023-11-25T04:15:36.101Z,5.50
2023-11-25T04:16:39.434Z,5.00
2023-11-25T04:17:42.739Z,4.50
2023-11-25T04:18:46.378Z,5.00
2023-11-25T04:19:50.205Z,5.00
2023-11-25T04:20:53.686Z,5.00
2023-11-25T04:21:57.974Z,4.50
2023-11-25T04:23:01.473Z,4.50
2023-11-25T04:24:05.569Z,5.00
2023-11-25T04:25:09.101Z,5.75
2023-11-25T04:26:12.649Z,6.25
2023-11-25T04:27:16.442Z,7.00
2023-11-25T04:28:19.968Z,7.00
2023-11-25T04:29:23.395Z,6.00
2023-11-25T04:30:26.912Z,7.00
2023-11-25T04:31:30.331Z,8.25
2023-11-25T04:32:34.056Z,7.75
2023-11-25T04:33:37.576Z,8.00
2023-11-25T04:34:41.543Z,7.00
2023-11-25T04:35:44.950Z,6.50
2023-11-25T04:36:48.353Z,7.00
2023-11-25T04:37:51.767Z,7.00
2023-11-25T04:38:55.234Z,6.50
2023-11-25T04:39:58.818Z,7.00
2023-11-25T04:41:02.703Z,7.75
2023-11-25T04:42:06.325Z,7.25
2023-11-25T04:43:09.875Z,8.00
2023-11-25T04:44:13.411Z,10.00
2023-11-25T04:45:17.067Z,10.25
2023-11-25T04:46:20.828Z,9.50
2023-11-25T04:47:24.397Z,9.50
2023-11-25T04:48:28.175Z,10.00
2023-11-25T04:49:31.714Z,10.00
2023-11-25T04:50:35.059Z,10.00
2023-11-25T04:51:38.540Z,11.25
2023-11-25T04:52:42.084Z,10.00
2023-11-25T04:53:45.614Z,9.50
2023-11-25T04:54:49.282Z,10.50
2023-11-25T04:55:53.034Z,10.50
2023-11-25T04:56:56.369Z,10.50
2023-11-25T04:57:59.770Z,11.00
2023-11-25T04:59:03.158Z,10.00
2023-11-25T05:00:06.860Z,9.75
2023-11-25T05:01:10.667Z,10.00
2023-11-25T05:02:14.210Z,10.25
2023-11-25T05:03:17.961Z,9.50
2023-11-25T05:04:21.345Z,10.25
2023-11-25T05:05:24.681Z,10.50
2023-11-25T05:06:28.845Z,10.50
2023-11-25T05:07:32.408Z,11.50
2023-11-25T05:08:36.101Z,11.00
2023-11-25T05:09:39.603Z,9.50
2023-11-25T05:10:42.979Z,9.75
2023-11-25T05:11:46.469Z,9.50
2023-11-25T05:12:50.069Z,9.50
2023-11-25T05:13:53.682Z,10.00
2023-11-25T05:14:57.147Z,10.50
2023-11-25T05:16:00.626Z,9.25
2023-11-25T05:17:04.508Z,8.75
2023-11-25T05:18:08.131Z,9.25
2023-11-25T05:19:11.515Z,9.00
2023-11-25T05:20:15.458Z,10.00
2023-11-25T05:21:18.793Z,10.00
2023-11-25T05:22:22.326Z,9.00
2023-11-25T05:23:25.618Z,7.50
2023-11-25T05:24:29.158Z,8.75
2023-11-25T05:25:35.768Z,9.00
2023-11-25T05:26:39.471Z,8.00
2023-11-25T05:27:42.801Z,7.50
2023-11-25T05:28:46.458Z,9.50
2023-11-25T05:29:50.078Z,10.00
2023-11-25T05:30:53.579Z,10.25
2023-11-25T05:31:57.099Z,10.00
2023-11-25T05:33:00.800Z,9.75
2023-11-25T05:34:04.243Z,10.00
2023-11-25T05:35:07.751Z,10.50
2023-11-25T05:36:11.302Z,10.50
2023-11-25T05:37:14.934Z,9.50
2023-11-25T05:38:18.709Z,11.00
2023-11-25T05:39:21.869Z,11.00
2023-11-25T05:40:24.987Z,10.75
2023-11-25T05:41:28.260Z,10.25
2023-11-25T05:42:31.658Z,11.00
2023-11-25T05:43:34.918Z,10.50
2023-11-25T05:44:38.313Z,10.50
2023-11-25T05:45:41.667Z,11.50
2023-11-25T05:46:45.059Z,10.25
2023-11-25T05:47:48.377Z,9.00
2023-11-25T05:48:51.754Z,10.00
2023-11-25T05:49:55.141Z,9.25
2023-11-25T05:50:58.524Z,7.40
2023-11-25T05:52:01.821Z,7.50
2023-11-25T05:53:05.814Z,8.50
2023-11-25T05:54:08.955Z,8.75
2023-11-25T05:55:12.404Z,8.50
2023-11-25T05:56:15.876Z,8.75
2023-11-25T05:57:19.471Z,9.00
2023-11-25T05:58:22.836Z,9.00
2023-11-25T05:59:26.135Z,9.75
2023-11-25T06:00:29.346Z,10.25
2023-11-25T06:01:32.879Z,9.50
2023-11-25T06:02:36.119Z,9.50
2023-11-25T06:03:39.522Z,8.00
2023-11-25T06:04:42.695Z,8.50
2023-11-25T06:05:45.863Z,9.50
2023-11-25T06:06:49.211Z,9.00
2023-11-25T06:07:52.694Z,8.50
2023-11-25T06:08:56.098Z,8.50
2023-11-25T06:09:59.602Z,8.50
2023-11-25T06:11:02.967Z,7.50
2023-11-25T06:12:07.920Z,8.00
2023-11-25T06:13:11.685Z,8.00
2023-11-25T06:14:15.394Z,7.50
2023-11-25T06:15:19.087Z,6.50
2023-11-25T06:16:22.497Z,8.00
2023-11-25T06:17:26.546Z,8.00
2023-11-25T06:18:29.865Z,8.00
2023-11-25T06:19:33.829Z,8.00
2023-11-25T06:20:37.037Z,8.50
2023-11-25T06:21:42.121Z,9.50
2023-11-25T06:22:45.390Z,9.50
2023-11-25T06:23:49.147Z,9.25
2023-11-25T06:24:53.361Z,9.00
2023-11-25T06:25:57.006Z,7.75
2023-11-25T06:27:00.657Z,7.00
2023-11-25T06:28:04.311Z,6.50
2023-11-25T06:29:07.916Z,6.50
2023-11-25T06:30:11.567Z,4.75
2023-11-25T06:31:15.689Z,5.75
2023-11-25T06:32:19.519Z,6.50
2023-11-25T06:33:22.950Z,6.50
2023-11-25T06:34:26.500Z,5.25
2023-11-25T06:35:29.983Z,4.00
2023-11-25T06:36:33.374Z,4.00
2023-11-25T06:37:37.294Z,4.00
2023-11-25T06:38:40.684Z,3.25
2023-11-25T06:39:44.250Z,3.50
2023-11-25T06:40:48.050Z,4.00
2023-11-25T06:41:51.552Z,4.00
2023-11-25T06:42:55.212Z,3.25
2023-11-25T06:43:58.626Z,3.50
2023-11-25T06:45:02.107Z,4.25
2023-11-25T06:46:06.226Z,4.50
2023-11-25T06:47:09.819Z,4.00
2023-11-25T06:48:13.541Z,4.00
2023-11-25T06:49:17.195Z,5.00
2023-11-25T06:50:20.897Z,5.00
2023-11-25T06:51:24.689Z,4.50
2023-11-25T06:52:28.419Z,5.50
2023-11-25T06:53:31.846Z,5.00
2023-11-25T06:54:35.453Z,5.50
2023-11-25T06:55:39.076Z,5.00
2023-11-25T06:56:42.757Z,5.50
2023-11-25T06:57:46.318Z,5.50
2023-11-25T06:58:49.774Z,5.75
2023-11-25T06:59:53.310Z,5.50
2023-11-25T07:00:57.151Z,4.00
2023-11-25T07:02:00.936Z,4.00
2023-11-25T07:03:04.597Z,5.50
2023-11-25T07:04:08.322Z,4.00
2023-11-25T07:05:12.394Z,4.50
2023-11-25T07:06:16.210Z,5.00
2023-11-25T07:07:20.010Z,4.50
2023-11-25T07:08:23.778Z,5.50
2023-11-25T07:09:27.392Z,5.50
2023-11-25T07:10:30.911Z,5.50
2023-11-25T07:11:34.558Z,4.50
2023-11-25T07:12:38.361Z,5.50
2023-11-25T07:13:41.931Z,6.00
2023-11-25T07:14:45.327Z,6.50
2023-11-25T07:15:48.917Z,8.25
2023-11-25T07:16:52.317Z,9.50
2023-11-25T07:17:55.746Z,8.25
2023-11-25T07:18:59.334Z,7.50
2023-11-25T07:20:03.093Z,9.00
2023-11-25T07:21:07.214Z,7.80
2023-11-25T07:22:10.896Z,7.25
2023-11-25T07:23:14.638Z,8.50
2023-11-25T07:24:18.384Z,7.00
2023-11-25T07:25:21.816Z,9.50
2023-11-25T07:26:25.400Z,10.40
2023-11-25T07:27:28.960Z,9.50
2023-11-25T07:28:32.974Z,7.75
2023-11-25T07:29:36.453Z,9.50
2023-11-25T07:30:40.182Z,10.75
2023-11-25T07:31:43.824Z,10.00
2023-11-25T07:32:47.229Z,8.00
2023-11-25T07:33:51.479Z,9.20
2023-11-25T07:34:55.502Z,9.50
2023-11-25T07:35:59.512Z,8.25
2023-11-25T07:37:02.940Z,9.00
2023-11-25T07:38:06.591Z,9.00
2023-11-25T07:39:10.410Z,8.75
2023-11-25T07:40:14.695Z,8.75
2023-11-25T07:41:18.001Z,10.00
2023-11-25T07:42:21.478Z,10.50
2023-11-25T07:43:25.021Z,10.75
2023-11-25T07:44:28.237Z,10.50
2023-11-25T07:45:31.531Z,9.50
2023-11-25T07:46:35.205Z,9.50
2023-11-25T07:47:38.887Z,11.00
2023-11-25T07:48:42.718Z,10.50
2023-11-25T07:49:46.252Z,11.00
2023-11-25T07:50:51.389Z,12.25
2023-11-25T07:51:53.902Z,10.75
2023-11-25T07:52:57.470Z,12.50
2023-11-25T07:54:00.971Z,14.75
2023-11-25T07:55:04.375Z,14.00
2023-11-25T07:56:07.667Z,12.00
2023-11-25T07:57:11.980Z,12.50
2023-11-25T07:58:15.791Z,12.75
2023-11-25T07:59:19.020Z,12.25
2023-11-25T08:00:22.221Z,12.25
2023-11-25T08:01:25.580Z,12.50
2023-11-25T08:02:28.998Z,12.50
2023-11-25T08:03:32.592Z,13.25
2023-11-25T08:04:36.025Z,13.00
2023-11-25T08:05:39.273Z,14.25
2023-11-25T08:06:42.739Z,15.50
2023-11-25T08:07:46.145Z,15.50
2023-11-25T08:08:49.718Z,15.50
2023-11-25T08:09:53.194Z,14.50
2023-11-25T08:10:56.520Z,14.00
2023-11-25T08:12:00.108Z,14.00
2023-11-25T08:13:03.549Z,15.00
2023-11-25T08:14:06.938Z,18.00
2023-11-25T08:15:10.346Z,16.50
2023-11-25T08:16:13.699Z,13.25
2023-11-25T08:17:17.088Z,14.00
2023-11-25T08:18:20.426Z,14.50
2023-11-25T08:19:23.981Z,16.25
2023-11-25T08:20:27.495Z,18.75
2023-11-25T08:21:30.876Z,17.50
2023-11-25T08:22:34.121Z,15.00
2023-11-25T08:23:37.553Z,14.00
2023-11-25T08:24:40.849Z,15.25
2023-11-25T08:25:44.166Z,14.50
2023-11-25T08:26:47.496Z,14.25
2023-11-25T08:27:50.920Z,15.50
2023-11-25T08:28:54.270Z,14.50
2023-11-25T08:29:57.554Z,14.50
2023-11-25T08:31:00.960Z,15.75
2023-11-25T08:32:04.342Z,15.00
2023-11-25T08:33:07.907Z,14.75
2023-11-25T08:34:11.649Z,15.00
2023-11-25T08:35:15.129Z,15.00
2023-11-25T08:36:18.403Z,14.00
2023-11-25T08:37:21.794Z,13.00
2023-11-25T08:38:25.195Z,13.75
2023-11-25T08:39:28.751Z,14.00
2023-11-25T08:40:31.986Z,14.50
2023-11-25T08:41:35.431Z,14.25
2023-11-25T08:42:38.715Z,13.50
2023-11-25T08:43:41.867Z,13.00
2023-11-25T08:44:44.979Z,15.50
2023-11-25T08:45:48.436Z,16.00
2023-11-25T08:46:51.798Z,13.50
2023-11-25T08:47:55.241Z,14.50
2023-11-25T08:48:58.618Z,15.50
2023-11-25T08:50:01.912Z,13.00
2023-11-25T08:51:08.173Z,11.75
2023-11-25T08:52:10.005Z,12.75
2023-11-25T08:53:13.699Z,13.25
2023-11-25T08:54:17.599Z,14.75
2023-11-25T08:55:21.536Z,14.00
2023-11-25T08:56:25.098Z,12.50
2023-11-25T08:57:28.707Z,13.00
2023-11-25T08:58:32.076Z,14.25
2023-11-25T08:59:35.487Z,14.50
2023-11-25T09:00:39.365Z,13.75
2023-11-25T09:01:43.007Z,12.25
2023-11-25T09:02:46.449Z,11.00
2023-11-25T09:03:50.121Z,13.50
2023-11-25T09:05:03.638Z,13.50
2023-11-25T09:05:57.585Z,12.50
2023-11-25T09:07:01.014Z,13.00
2023-11-25T09:08:04.637Z,14.00
2023-11-25T09:09:07.925Z,15.25
2023-11-25T09:10:11.373Z,13.50
2023-11-25T09:11:14.574Z,14.00
2023-11-25T09:12:17.837Z,14.20
2023-11-25T09:13:21.049Z,15.50
2023-11-25T09:14:24.415Z,16.50
2023-11-25T09:15:27.598Z,14.00
2023-11-25T09:16:30.933Z,14.50
2023-11-25T09:17:34.413Z,15.00
2023-11-25T09:18:37.656Z,15.00
2023-11-25T09:19:40.700Z,15.50
2023-11-25T09:20:44.335Z,13.00
2023-11-25T09:21:47.502Z,14.50
2023-11-25T09:22:50.949Z,15.00
2023-11-25T09:23:54.270Z,13.25
2023-11-25T09:24:57.362Z,13.00
2023-11-25T09:26:00.572Z,13.00
2023-11-25T09:27:03.914Z,13.00
2023-11-25T09:28:07.210Z,12.00
2023-11-25T09:29:11.142Z,13.50
2023-11-25T09:30:14.686Z,15.00
2023-11-25T09:31:18.194Z,14.50
2023-11-25T09:32:21.475Z,14.00
2023-11-25T09:33:24.955Z,14.50
2023-11-25T09:34:28.597Z,15.00
2023-11-25T09:35:32.030Z,13.50
2023-11-25T09:36:35.626Z,11.50
2023-11-25T09:37:39.223Z,13.50
2023-11-25T09:38:42.604Z,15.00
2023-11-25T09:39:46.093Z,15.50
2023-11-25T09:40:49.927Z,15.00
2023-11-25T09:41:53.376Z,15.00
2023-11-25T09:42:56.987Z,13.00
2023-11-25T09:44:00.397Z,14.50
2023-11-25T09:45:04.057Z,14.00
2023-11-25T09:46:07.395Z,13.50
2023-11-25T09:47:10.729Z,15.00
2023-11-25T09:48:14.014Z,14.50
2023-11-25T09:49:17.255Z,15.50
2023-11-25T09:50:20.876Z,15.50
2023-11-25T09:51:24.166Z,14.50
2023-11-25T09:52:27.590Z,14.50
2023-11-25T09:53:31.060Z,12.75
2023-11-25T09:54:36.652Z,13.00
2023-11-25T09:55:39.082Z,14.00
2023-11-25T09:56:42.773Z,14.50
2023-11-25T09:57:46.244Z,12.75
2023-11-25T09:58:50.081Z,14.50
2023-11-25T09:59:53.624Z,15.00
2023-11-25T10:00:56.905Z,14.00
2023-11-25T10:02:00.323Z,14.25
2023-11-25T10:03:03.915Z,13.00
2023-11-25T10:04:07.466Z,13.50
2023-11-25T10:05:10.827Z,13.50
2023-11-25T10:06:14.242Z,11.75
2023-11-25T10:07:17.687Z,11.50
2023-11-25T10:08:21.009Z,14.00
2023-11-25T10:09:24.403Z,13.25
2023-11-25T10:10:28.037Z,12.50
2023-11-25T10:11:31.477Z,12.00
2023-11-25T10:12:34.746Z,13.00
2023-11-25T10:13:38.152Z,12.50
2023-11-25T10:14:41.642Z,11.00
2023-11-25T10:15:45.133Z,13.25
2023-11-25T10:16:48.674Z,13.25
2023-11-25T10:17:52.264Z,11.75
2023-11-25T10:18:55.460Z,11.50
2023-11-25T10:19:59.088Z,12.00
2023-11-25T10:21:02.481Z,12.00
2023-11-25T10:22:05.957Z,11.50
2023-11-25T10:23:09.454Z,12.25
2023-11-25T10:24:12.844Z,14.00
2023-11-25T10:25:16.325Z,12.00
2023-11-25T10:26:19.620Z,12.50
2023-11-25T10:27:22.906Z,12.00
2023-11-25T10:28:26.310Z,12.50
2023-11-25T10:29:29.670Z,12.00
2023-11-25T10:30:32.896Z,11.00
2023-11-25T10:31:36.180Z,11.50
2023-11-25T10:32:39.454Z,11.50
2023-11-25T10:33:42.826Z,11.00
2023-11-25T10:34:45.866Z,11.00
2023-11-25T10:35:49.098Z,10.25
2023-11-25T10:36:52.461Z,10.50
2023-11-25T10:37:56.014Z,10.00
2023-11-25T10:38:59.436Z,9.50
2023-11-25T10:40:02.627Z,10.50
2023-11-25T10:41:06.586Z,12.00
2023-11-25T10:42:09.819Z,11.25
2023-11-25T10:43:13.501Z,10.60
2023-11-25T10:44:16.687Z,11.50
2023-11-25T10:45:20.082Z,10.50
2023-11-25T10:46:23.404Z,10.50
2023-11-25T10:47:26.832Z,9.50
2023-11-25T10:48:30.400Z,9.00
2023-11-25T10:49:34.243Z,9.50
2023-11-25T10:50:37.721Z,9.75
2023-11-25T10:51:41.115Z,11.00
2023-11-25T10:52:44.753Z,11.50
2023-11-25T10:53:48.446Z,11.00
2023-11-25T10:54:51.778Z,9.80
2023-11-25T10:55:55.350Z,9.50
2023-11-25T10:56:58.739Z,10.00
2023-11-25T10:58:02.430Z,11.20
2023-11-25T10:59:06.674Z,9.75
2023-11-25T11:00:09.927Z,8.50
2023-11-25T11:01:13.506Z,9.50
2023-11-25T11:02:16.874Z,9.25
2023-11-25T11:03:20.473Z,9.00
2023-11-25T11:04:23.972Z,10.50
2023-11-25T11:05:27.298Z,10.00
2023-11-25T11:06:30.675Z,8.50
2023-11-25T11:07:34.116Z,8.00
2023-11-25T11:08:37.460Z,9.00
2023-11-25T11:09:40.709Z,9.25
2023-11-25T11:10:43.901Z,8.50
2023-11-25T11:11:47.184Z,9.00
2023-11-25T11:12:50.370Z,8.50
2023-11-25T11:13:53.667Z,8.50
2023-11-25T11:14:56.930Z,7.00
2023-11-25T11:16:00.223Z,10.75
2023-11-25T11:17:03.561Z,10.50
2023-11-25T11:18:07.011Z,8.50
2023-11-25T11:19:10.447Z,9.00
2023-11-25T11:20:13.809Z,8.50
2023-11-25T11:21:17.051Z,7.75
2023-11-25T11:22:20.201Z,8.00
2023-11-25T11:23:23.415Z,8.50
2023-11-25T11:24:26.690Z,8.00
2023-11-25T11:25:30.143Z,8.75
2023-11-25T11:26:33.464Z,9.50
2023-11-25T11:27:36.753Z,9.00
2023-11-25T11:28:40.037Z,9.50
2023-11-25T11:29:43.334Z,8.25
2023-11-25T11:30:46.608Z,8.00
2023-11-25T11:31:49.988Z,7.00
2023-11-25T11:32:53.391Z,7.50
2023-11-25T11:33:56.802Z,7.75
2023-11-25T11:35:00.311Z,7.25
2023-11-25T11:36:03.651Z,8.50
2023-11-25T11:37:07.254Z,9.00
2023-11-25T11:38:10.534Z,8.25
2023-11-25T11:39:13.760Z,8.25
2023-11-25T11:40:16.877Z,9.00
2023-11-25T11:41:20.284Z,8.50
2023-11-25T11:42:23.455Z,7.00
2023-11-25T11:43:26.670Z,6.50
2023-11-25T11:44:29.913Z,7.50
2023-11-25T11:45:33.096Z,8.00
2023-11-25T11:46:36.404Z,7.50
2023-11-25T11:47:39.761Z,8.00
2023-11-25T11:48:43.098Z,8.25
2023-11-25T11:49:46.443Z,7.50
2023-11-25T11:50:49.830Z,7.50
2023-11-25T11:51:53.115Z,7.00
2023-11-25T11:52:56.412Z,7.50
2023-11-25T11:53:59.450Z,6.75
2023-11-25T11:55:02.892Z,6.50
2023-11-25T11:56:06.069Z,6.00
2023-11-25T11:57:09.328Z,6.50
2023-11-25T11:58:12.432Z,7.00
2023-11-25T11:59:15.789Z,6.75
2023-11-25T12:00:19.385Z,7.50
2023-11-25T12:01:22.808Z,7.50
2023-11-25T12:02:26.034Z,7.00
2023-11-25T12:03:29.337Z,7.20
2023-11-25T12:04:32.849Z,6.80
2023-11-25T12:05:36.220Z,6.25
2023-11-25T12:06:39.276Z,7.50
2023-11-25T12:07:43.003Z,7.00
2023-11-25T12:08:46.390Z,7.50
2023-11-25T12:09:49.663Z,7.75
2023-11-25T12:10:53.024Z,7.25
2023-11-25T12:11:56.231Z,7.00
2023-11-25T12:12:59.408Z,7.50
2023-11-25T12:14:02.904Z,6.50
2023-11-25T12:15:06.189Z,6.00
2023-11-25T12:16:09.726Z,7.00
2023-11-25T12:17:13.217Z,8.00
2023-11-25T12:18:16.705Z,5.50
2023-11-25T12:19:20.245Z,5.50
2023-11-25T12:20:23.535Z,7.00
2023-11-25T12:21:26.882Z,6.00
2023-11-25T12:22:30.255Z,6.00
2023-11-25T12:23:40.830Z,8.50
2023-11-25T12:24:38.097Z,7.50
2023-11-25T12:25:41.545Z,7.60
2023-11-25T12:26:44.870Z,7.50
2023-11-25T12:27:48.604Z,6.50
2023-11-25T12:28:52.498Z,6.50
2023-11-25T12:29:55.733Z,6.50
2023-11-25T12:30:58.933Z,7.50
2023-11-25T12:32:02.397Z,7.50
2023-11-25T12:33:05.650Z,7.50
2023-11-25T12:34:09.197Z,7.50
2023-11-25T12:35:12.385Z,5.50
2023-11-25T12:36:15.571Z,6.50
2023-11-25T12:37:19.058Z,8.00
2023-11-25T12:38:23.010Z,7.50
2023-11-25T12:39:26.663Z,7.00
2023-11-25T12:40:30.047Z,8.00
2023-11-25T12:41:33.559Z,8.50
2023-11-25T12:42:36.825Z,8.50
2023-11-25T12:43:40.036Z,8.25
2023-11-25T12:44:43.363Z,8.50
2023-11-25T12:45:46.831Z,6.50
2023-11-25T12:46:50.076Z,7.50
2023-11-25T12:47:53.488Z,6.50
2023-11-25T12:48:57.440Z,6.50
2023-11-25T12:50:01.427Z,7.00
2023-11-25T12:51:04.613Z,9.00
2023-11-25T12:52:07.893Z,9.50
2023-11-25T12:53:11.070Z,6.50
2023-11-25T12:54:14.475Z,6.25
2023-11-25T12:55:17.737Z,6.00
2023-11-25T12:56:21.018Z,6.50
2023-11-25T12:57:24.154Z,7.00
2023-11-25T12:58:27.386Z,8.00
2023-11-25T12:59:30.573Z,8.50
2023-11-25T13:00:33.773Z,8.00
2023-11-25T13:01:37.115Z,7.50
2023-11-25T13:02:40.734Z,7.50
2023-11-25T13:03:44.114Z,8.00
2023-11-25T13:04:47.358Z,7.50
2023-11-25T13:05:50.613Z,7.75
2023-11-25T13:06:53.765Z,6.75
2023-11-25T13:07:56.949Z,7.50
2023-11-25T13:09:00.242Z,7.00
2023-11-25T13:10:03.515Z,7.50
2023-11-25T13:11:06.875Z,8.50
2023-11-25T13:12:10.297Z,7.00
2023-11-25T13:13:13.356Z,7.00
2023-11-25T13:14:16.677Z,6.50
2023-11-25T13:15:19.713Z,7.00
2023-11-25T13:16:22.818Z,7.50
2023-11-25T13:17:26.334Z,7.50
2023-11-25T13:18:29.693Z,7.25
2023-11-25T13:19:33.001Z,7.00
2023-11-25T13:20:36.369Z,6.50
2023-11-25T13:21:39.712Z,7.25
2023-11-25T13:22:43.152Z,6.50
2023-11-25T13:23:46.756Z,7.00
2023-11-25T13:24:50.440Z,6.00
2023-11-25T13:25:54.030Z,6.75
2023-11-25T13:26:57.506Z,6.25
2023-11-25T13:28:00.644Z,5.50
2023-11-25T13:29:04.197Z,5.75
2023-11-25T13:30:07.507Z,6.00
2023-11-25T13:31:10.957Z,5.00
2023-11-25T13:32:14.222Z,6.00
2023-11-25T13:33:17.825Z,5.50
2023-11-25T13:34:21.213Z,5.50
2023-11-25T13:35:24.695Z,7.00
2023-11-25T13:36:27.840Z,6.50
2023-11-25T13:37:31.163Z,7.00
2023-11-25T13:38:34.445Z,6.25
2023-11-25T13:39:37.940Z,5.75
2023-11-25T13:40:41.352Z,5.50
2023-11-25T13:41:44.838Z,6.25
2023-11-25T13:42:48.101Z,5.50
2023-11-25T13:43:51.212Z,4.75
2023-11-25T13:44:54.321Z,5.50
2023-11-25T13:45:57.766Z,5.50
2023-11-25T13:47:01.375Z,5.25
2023-11-25T13:48:04.853Z,6.50
2023-11-25T13:49:08.329Z,5.50
2023-11-25T13:50:11.512Z,5.00
2023-11-25T13:51:14.567Z,4.00
2023-11-25T13:52:17.966Z,4.25
2023-11-25T13:53:21.356Z,6.00
2023-11-25T13:54:24.835Z,4.50
2023-11-25T13:55:28.283Z,4.50
2023-11-25T13:56:31.629Z,4.50